Terminal Aerodrome Forecast
Issued by NWS Knoxville/Tri Cities, TN

Home | Current Version | Previous Version | Text Only | Print | Product List | Glossary On
Versions: 1 2 3 4 5 6 7 8 9 10 11 12
000
FTUS44 KMRX 270522
TAFTYS
TAF
KTYS 270522Z 2706/2806 VRB03KT P6SM SCT060 SCT250
     FM270900 VRB02KT 6SM BR SCT030 SCT250
     FM271300 24005KT P6SM SCT250
     FM280000 23004KT P6SM BKN250=

USA.gov is the U.S. government's official web portal to all federal, state and local government web resources and services.